sensor_id;sensor_type;location;lat;lon;timestamp;P1;durP1;ratioP1;P2;durP2;ratioP2
48002;SDS011;33768;48.578;11.574;2022-09-29T00:01:16;3.07;;;1.63;;
48002;SDS011;33768;48.578;11.574;2022-09-29T00:04:21;1.90;;;1.70;;
48002;SDS011;33768;48.578;11.574;2022-09-29T00:07:27;2.10;;;1.50;;
48002;SDS011;33768;48.578;11.574;2022-09-29T00:10:32;1.57;;;1.40;;
48002;SDS011;33768;48.578;11.574;2022-09-29T00:13:36;2.00;;;1.47;;
48002;SDS011;33768;48.578;11.574;2022-09-29T00:16:41;3.87;;;1.70;;
48002;SDS011;33768;48.578;11.574;2022-09-29T00:19:45;1.93;;;1.73;;
48002;SDS011;33768;48.578;11.574;2022-09-29T00:22:49;2.30;;;1.90;;
48002;SDS011;33768;48.578;11.574;2022-09-29T00:25:58;2.37;;;1.90;;
48002;SDS011;33768;48.578;11.574;2022-09-29T00:29:10;1.77;;;1.60;;
48002;SDS011;33768;48.578;11.574;2022-09-29T00:32:14;4.23;;;1.80;;
48002;SDS011;33768;48.578;11.574;2022-09-29T00:35:18;2.70;;;1.90;;
48002;SDS011;33768;48.578;11.574;2022-09-29T00:38:23;3.77;;;1.73;;
48002;SDS011;33768;48.578;11.574;2022-09-29T00:41:29;1.90;;;1.60;;
48002;SDS011;33768;48.578;11.574;2022-09-29T00:48:08;3.40;;;1.83;;
48002;SDS011;33768;48.578;11.574;2022-09-29T00:51:17;1.57;;;1.47;;
48002;SDS011;33768;48.578;11.574;2022-09-29T00:54:23;4.23;;;1.53;;
48002;SDS011;33768;48.578;11.574;2022-09-29T00:57:42;3.47;;;1.80;;
48002;SDS011;33768;48.578;11.574;2022-09-29T01:00:50;3.47;;;1.70;;
48002;SDS011;33768;48.578;11.574;2022-09-29T01:03:55;2.83;;;1.40;;
48002;SDS011;33768;48.578;11.574;2022-09-29T01:07:05;2.10;;;1.90;;
48002;SDS011;33768;48.578;11.574;2022-09-29T01:10:13;3.83;;;1.90;;
48002;SDS011;33768;48.578;11.574;2022-09-29T01:13:20;2.23;;;2.03;;
48002;SDS011;33768;48.578;11.574;2022-09-29T01:16:25;4.50;;;2.00;;
48002;SDS011;33768;48.578;11.574;2022-09-29T01:19:35;2.63;;;1.70;;
48002;SDS011;33768;48.578;11.574;2022-09-29T01:33:26;2.00;;;1.77;;
48002;SDS011;33768;48.578;11.574;2022-09-29T01:36:36;4.90;;;1.57;;
48002;SDS011;33768;48.578;11.574;2022-09-29T01:42:54;2.30;;;1.80;;
48002;SDS011;33768;48.578;11.574;2022-09-29T01:46:06;2.00;;;1.80;;
48002;SDS011;33768;48.578;11.574;2022-09-29T01:49:16;2.93;;;1.83;;
48002;SDS011;33768;48.578;11.574;2022-09-29T01:52:26;3.73;;;2.13;;
48002;SDS011;33768;48.578;11.574;2022-09-29T01:55:34;2.83;;;1.83;;
48002;SDS011;33768;48.578;11.574;2022-09-29T01:58:46;2.87;;;2.00;;
48002;SDS011;33768;48.578;11.574;2022-09-29T02:01:59;2.13;;;1.60;;
48002;SDS011;33768;48.578;11.574;2022-09-29T02:05:17;2.47;;;1.77;;
48002;SDS011;33768;48.578;11.574;2022-09-29T02:08:26;6.53;;;2.17;;
48002;SDS011;33768;48.578;11.574;2022-09-29T02:11:37;2.50;;;2.03;;
48002;SDS011;33768;48.578;11.574;2022-09-29T02:14:44;3.57;;;2.10;;
48002;SDS011;33768;48.578;11.574;2022-09-29T02:17:51;2.53;;;2.00;;
48002;SDS011;33768;48.578;11.574;2022-09-29T02:20:58;2.50;;;2.03;;
48002;SDS011;33768;48.578;11.574;2022-09-29T02:24:02;3.10;;;2.20;;
48002;SDS011;33768;48.578;11.574;2022-09-29T02:27:06;2.50;;;1.97;;
48002;SDS011;33768;48.578;11.574;2022-09-29T02:30:11;2.73;;;2.30;;
48002;SDS011;33768;48.578;11.574;2022-09-29T02:33:16;3.10;;;2.40;;
48002;SDS011;33768;48.578;11.574;2022-09-29T02:46:49;2.30;;;2.10;;
48002;SDS011;33768;48.578;11.574;2022-09-29T03:00:09;2.00;;;1.67;;
48002;SDS011;33768;48.578;11.574;2022-09-29T03:03:14;2.77;;;2.50;;
48002;SDS011;33768;48.578;11.574;2022-09-29T03:06:18;4.57;;;2.37;;
48002;SDS011;33768;48.578;11.574;2022-09-29T03:09:24;8.93;;;4.53;;
48002;SDS011;33768;48.578;11.574;2022-09-29T03:12:29;13.83;;;4.90;;
48002;SDS011;33768;48.578;11.574;2022-09-29T03:15:33;11.00;;;5.30;;
48002;SDS011;33768;48.578;11.574;2022-09-29T03:18:38;8.93;;;4.50;;
48002;SDS011;33768;48.578;11.574;2022-09-29T03:21:42;7.60;;;3.63;;
48002;SDS011;33768;48.578;11.574;2022-09-29T03:24:46;5.93;;;2.83;;
48002;SDS011;33768;48.578;11.574;2022-09-29T03:27:50;4.03;;;2.50;;
48002;SDS011;33768;48.578;11.574;2022-09-29T03:30:55;2.83;;;2.20;;
48002;SDS011;33768;48.578;11.574;2022-09-29T03:33:59;4.20;;;2.60;;
48002;SDS011;33768;48.578;11.574;2022-09-29T03:37:04;3.90;;;2.33;;
48002;SDS011;33768;48.578;11.574;2022-09-29T03:40:08;8.87;;;2.83;;
48002;SDS011;33768;48.578;11.574;2022-09-29T03:43:12;4.37;;;3.03;;
48002;SDS011;33768;48.578;11.574;2022-09-29T03:46:16;3.00;;;2.70;;
48002;SDS011;33768;48.578;11.574;2022-09-29T03:49:21;3.90;;;2.90;;
48002;SDS011;33768;48.578;11.574;2022-09-29T03:52:25;3.47;;;2.90;;
48002;SDS011;33768;48.578;11.574;2022-09-29T03:55:30;3.30;;;2.80;;
48002;SDS011;33768;48.578;11.574;2022-09-29T03:58:34;4.10;;;2.70;;
48002;SDS011;33768;48.578;11.574;2022-09-29T04:01:38;3.50;;;2.93;;
48002;SDS011;33768;48.578;11.574;2022-09-29T04:04:42;3.33;;;3.03;;
48002;SDS011;33768;48.578;11.574;2022-09-29T04:07:47;6.50;;;4.40;;
48002;SDS011;33768;48.578;11.574;2022-09-29T04:10:51;3.53;;;2.80;;
48002;SDS011;33768;48.578;11.574;2022-09-29T04:13:55;4.27;;;3.20;;
48002;SDS011;33768;48.578;11.574;2022-09-29T04:16:59;6.33;;;3.60;;
48002;SDS011;33768;48.578;11.574;2022-09-29T04:20:03;4.27;;;3.57;;
48002;SDS011;33768;48.578;11.574;2022-09-29T04:23:08;5.17;;;3.10;;
48002;SDS011;33768;48.578;11.574;2022-09-29T04:26:12;4.10;;;3.70;;
48002;SDS011;33768;48.578;11.574;2022-09-29T04:29:16;5.70;;;3.93;;
48002;SDS011;33768;48.578;11.574;2022-09-29T04:32:20;5.43;;;3.53;;
48002;SDS011;33768;48.578;11.574;2022-09-29T04:35:24;5.07;;;3.93;;
48002;SDS011;33768;48.578;11.574;2022-09-29T04:38:29;4.67;;;3.50;;
48002;SDS011;33768;48.578;11.574;2022-09-29T04:41:33;5.87;;;3.43;;
48002;SDS011;33768;48.578;11.574;2022-09-29T04:44:39;4.30;;;3.90;;
48002;SDS011;33768;48.578;11.574;2022-09-29T04:47:43;9.47;;;5.13;;
48002;SDS011;33768;48.578;11.574;2022-09-29T04:50:47;4.77;;;3.73;;
48002;SDS011;33768;48.578;11.574;2022-09-29T04:53:53;8.87;;;5.07;;
48002;SDS011;33768;48.578;11.574;2022-09-29T04:56:58;9.60;;;6.93;;
48002;SDS011;33768;48.578;11.574;2022-09-29T05:00:02;8.73;;;6.43;;
48002;SDS011;33768;48.578;11.574;2022-09-29T05:03:07;7.13;;;4.17;;
48002;SDS011;33768;48.578;11.574;2022-09-29T05:06:11;5.83;;;4.53;;
48002;SDS011;33768;48.578;11.574;2022-09-29T05:09:16;5.17;;;4.27;;
48002;SDS011;33768;48.578;11.574;2022-09-29T05:12:20;10.50;;;5.23;;
48002;SDS011;33768;48.578;11.574;2022-09-29T05:15:24;12.43;;;8.57;;
48002;SDS011;33768;48.578;11.574;2022-09-29T05:18:28;21.43;;;12.53;;
48002;SDS011;33768;48.578;11.574;2022-09-29T05:21:32;23.10;;;14.60;;
48002;SDS011;33768;48.578;11.574;2022-09-29T05:24:36;17.27;;;11.63;;
48002;SDS011;33768;48.578;11.574;2022-09-29T05:27:41;13.70;;;10.07;;
48002;SDS011;33768;48.578;11.574;2022-09-29T05:30:45;11.37;;;6.90;;
48002;SDS011;33768;48.578;11.574;2022-09-29T05:33:49;10.67;;;6.20;;
48002;SDS011;33768;48.578;11.574;2022-09-29T05:36:53;8.30;;;6.00;;
48002;SDS011;33768;48.578;11.574;2022-09-29T05:39:57;6.47;;;5.10;;
48002;SDS011;33768;48.578;11.574;2022-09-29T05:43:01;5.53;;;4.67;;
48002;SDS011;33768;48.578;11.574;2022-09-29T05:46:06;5.70;;;4.27;;
48002;SDS011;33768;48.578;11.574;2022-09-29T05:49:12;8.77;;;4.10;;
48002;SDS011;33768;48.578;11.574;2022-09-29T05:52:16;5.50;;;4.30;;
48002;SDS011;33768;48.578;11.574;2022-09-29T05:55:20;9.73;;;4.70;;
48002;SDS011;33768;48.578;11.574;2022-09-29T05:58:24;7.03;;;4.53;;
48002;SDS011;33768;48.578;11.574;2022-09-29T06:01:30;5.73;;;5.00;;
48002;SDS011;33768;48.578;11.574;2022-09-29T06:04:34;5.50;;;4.47;;
48002;SDS011;33768;48.578;11.574;2022-09-29T06:07:39;5.63;;;4.50;;
48002;SDS011;33768;48.578;11.574;2022-09-29T06:10:43;6.77;;;4.87;;
48002;SDS011;33768;48.578;11.574;2022-09-29T06:13:48;6.13;;;4.60;;
48002;SDS011;33768;48.578;11.574;2022-09-29T06:16:54;5.97;;;4.87;;
48002;SDS011;33768;48.578;11.574;2022-09-29T06:19:58;7.43;;;4.80;;
48002;SDS011;33768;48.578;11.574;2022-09-29T06:23:03;8.37;;;5.10;;
48002;SDS011;33768;48.578;11.574;2022-09-29T06:26:08;6.77;;;4.67;;
48002;SDS011;33768;48.578;11.574;2022-09-29T06:29:14;8.97;;;4.67;;
48002;SDS011;33768;48.578;11.574;2022-09-29T06:32:18;10.87;;;3.80;;
48002;SDS011;33768;48.578;11.574;2022-09-29T06:35:22;6.80;;;4.43;;
48002;SDS011;33768;48.578;11.574;2022-09-29T06:38:46;4.30;;;3.80;;
48002;SDS011;33768;48.578;11.574;2022-09-29T06:41:50;5.90;;;3.07;;
48002;SDS011;33768;48.578;11.574;2022-09-29T06:44:56;4.50;;;2.93;;
48002;SDS011;33768;48.578;11.574;2022-09-29T06:48:00;5.93;;;2.93;;
48002;SDS011;33768;48.578;11.574;2022-09-29T06:51:06;7.73;;;2.80;;
48002;SDS011;33768;48.578;11.574;2022-09-29T06:54:12;12.23;;;5.20;;
48002;SDS011;33768;48.578;11.574;2022-09-29T06:57:18;11.60;;;7.07;;
48002;SDS011;33768;48.578;11.574;2022-09-29T07:00:22;10.67;;;5.63;;
48002;SDS011;33768;48.578;11.574;2022-09-29T07:03:26;7.83;;;5.60;;
48002;SDS011;33768;48.578;11.574;2022-09-29T07:06:31;5.43;;;4.00;;
48002;SDS011;33768;48.578;11.574;2022-09-29T07:09:35;8.93;;;4.33;;
48002;SDS011;33768;48.578;11.574;2022-09-29T07:12:39;4.10;;;3.57;;
48002;SDS011;33768;48.578;11.574;2022-09-29T07:15:43;6.30;;;3.70;;
48002;SDS011;33768;48.578;11.574;2022-09-29T07:18:48;4.57;;;3.90;;
48002;SDS011;33768;48.578;11.574;2022-09-29T07:21:52;7.30;;;4.80;;
48002;SDS011;33768;48.578;11.574;2022-09-29T07:24:56;6.33;;;5.17;;
48002;SDS011;33768;48.578;11.574;2022-09-29T07:28:00;6.57;;;4.60;;
48002;SDS011;33768;48.578;11.574;2022-09-29T07:31:06;8.03;;;4.57;;
48002;SDS011;33768;48.578;11.574;2022-09-29T07:34:12;8.23;;;3.60;;
48002;SDS011;33768;48.578;11.574;2022-09-29T07:37:16;4.87;;;3.83;;
48002;SDS011;33768;48.578;11.574;2022-09-29T07:40:20;3.80;;;3.40;;
48002;SDS011;33768;48.578;11.574;2022-09-29T07:43:25;3.50;;;3.13;;
48002;SDS011;33768;48.578;11.574;2022-09-29T07:46:29;3.53;;;3.10;;
48002;SDS011;33768;48.578;11.574;2022-09-29T07:49:33;5.60;;;3.30;;
48002;SDS011;33768;48.578;11.574;2022-09-29T07:52:37;5.67;;;4.00;;
48002;SDS011;33768;48.578;11.574;2022-09-29T07:55:41;6.07;;;3.57;;
48002;SDS011;33768;48.578;11.574;2022-09-29T07:58:46;5.67;;;3.87;;
48002;SDS011;33768;48.578;11.574;2022-09-29T08:01:52;3.50;;;3.20;;
48002;SDS011;33768;48.578;11.574;2022-09-29T08:04:57;3.20;;;2.80;;
48002;SDS011;33768;48.578;11.574;2022-09-29T08:08:02;3.37;;;3.00;;
48002;SDS011;33768;48.578;11.574;2022-09-29T08:11:09;4.30;;;3.00;;
48002;SDS011;33768;48.578;11.574;2022-09-29T08:14:14;5.57;;;3.00;;
48002;SDS011;33768;48.578;11.574;2022-09-29T08:17:18;5.77;;;2.83;;
48002;SDS011;33768;48.578;11.574;2022-09-29T08:20:22;3.43;;;2.77;;
48002;SDS011;33768;48.578;11.574;2022-09-29T08:23:26;3.40;;;3.10;;
48002;SDS011;33768;48.578;11.574;2022-09-29T08:26:31;3.50;;;2.87;;
48002;SDS011;33768;48.578;11.574;2022-09-29T08:29:37;6.97;;;3.07;;
48002;SDS011;33768;48.578;11.574;2022-09-29T08:32:41;3.27;;;2.70;;
48002;SDS011;33768;48.578;11.574;2022-09-29T08:35:45;3.43;;;2.90;;
48002;SDS011;33768;48.578;11.574;2022-09-29T08:38:57;7.53;;;3.00;;
48002;SDS011;33768;48.578;11.574;2022-09-29T08:45:35;5.90;;;2.43;;
48002;SDS011;33768;48.578;11.574;2022-09-29T08:48:43;3.17;;;2.43;;
48002;SDS011;33768;48.578;11.574;2022-09-29T08:51:50;3.10;;;2.70;;
48002;SDS011;33768;48.578;11.574;2022-09-29T08:55:44;3.67;;;2.43;;
48002;SDS011;33768;48.578;11.574;2022-09-29T08:58:21;3.60;;;2.37;;
48002;SDS011;33768;48.578;11.574;2022-09-29T09:04:33;2.70;;;2.10;;
48002;SDS011;33768;48.578;11.574;2022-09-29T09:21:25;4.60;;;2.13;;
48002;SDS011;33768;48.578;11.574;2022-09-29T09:24:44;3.57;;;2.73;;
48002;SDS011;33768;48.578;11.574;2022-09-29T09:31:48;8.80;;;4.10;;
48002;SDS011;33768;48.578;11.574;2022-09-29T09:35:15;7.10;;;4.90;;
48002;SDS011;33768;48.578;11.574;2022-09-29T09:38:23;6.07;;;4.00;;
48002;SDS011;33768;48.578;11.574;2022-09-29T09:41:30;3.90;;;3.10;;
48002;SDS011;33768;48.578;11.574;2022-09-29T09:44:43;4.67;;;3.13;;
48002;SDS011;33768;48.578;11.574;2022-09-29T09:47:58;3.73;;;3.20;;
48002;SDS011;33768;48.578;11.574;2022-09-29T09:51:19;7.10;;;2.53;;
48002;SDS011;33768;48.578;11.574;2022-09-29T09:54:35;4.53;;;2.80;;
48002;SDS011;33768;48.578;11.574;2022-09-29T10:00:56;7.43;;;4.80;;
48002;SDS011;33768;48.578;11.574;2022-09-29T10:04:03;4.07;;;2.77;;
48002;SDS011;33768;48.578;11.574;2022-09-29T10:07:07;4.80;;;2.70;;
48002;SDS011;33768;48.578;11.574;2022-09-29T10:10:17;2.97;;;2.40;;
48002;SDS011;33768;48.578;11.574;2022-09-29T10:13:24;5.50;;;4.23;;
48002;SDS011;33768;48.578;11.574;2022-09-29T10:16:37;9.30;;;4.90;;
48002;SDS011;33768;48.578;11.574;2022-09-29T10:19:53;5.63;;;3.40;;
48002;SDS011;33768;48.578;11.574;2022-09-29T10:23:19;3.40;;;2.60;;
48002;SDS011;33768;48.578;11.574;2022-09-29T10:26:31;2.87;;;2.50;;
48002;SDS011;33768;48.578;11.574;2022-09-29T10:29:39;3.43;;;2.17;;
48002;SDS011;33768;48.578;11.574;2022-09-29T10:32:44;3.37;;;2.33;;
48002;SDS011;33768;48.578;11.574;2022-09-29T10:35:50;29.17;;;8.17;;
48002;SDS011;33768;48.578;11.574;2022-09-29T10:39:08;10.00;;;2.60;;
48002;SDS011;33768;48.578;11.574;2022-09-29T10:42:34;4.87;;;2.50;;
48002;SDS011;33768;48.578;11.574;2022-09-29T10:45:45;4.43;;;2.33;;
48002;SDS011;33768;48.578;11.574;2022-09-29T10:49:12;2.43;;;2.13;;
48002;SDS011;33768;48.578;11.574;2022-09-29T10:52:23;4.33;;;2.20;;
48002;SDS011;33768;48.578;11.574;2022-09-29T10:55:30;3.53;;;2.23;;
48002;SDS011;33768;48.578;11.574;2022-09-29T10:58:37;3.90;;;2.30;;
48002;SDS011;33768;48.578;11.574;2022-09-29T11:01:58;2.20;;;1.83;;
48002;SDS011;33768;48.578;11.574;2022-09-29T11:05:25;6.27;;;2.07;;
48002;SDS011;33768;48.578;11.574;2022-09-29T11:08:29;2.20;;;1.63;;
48002;SDS011;33768;48.578;11.574;2022-09-29T11:11:37;2.87;;;2.07;;
48002;SDS011;33768;48.578;11.574;2022-09-29T11:14:43;2.80;;;1.90;;
48002;SDS011;33768;48.578;11.574;2022-09-29T11:17:48;2.27;;;1.50;;
48002;SDS011;33768;48.578;11.574;2022-09-29T11:21:00;1.73;;;1.63;;
48002;SDS011;33768;48.578;11.574;2022-09-29T11:27:34;1.60;;;1.50;;
48002;SDS011;33768;48.578;11.574;2022-09-29T11:54:40;3.73;;;2.23;;
48002;SDS011;33768;48.578;11.574;2022-09-29T12:05:13;2.43;;;2.20;;
48002;SDS011;33768;48.578;11.574;2022-09-29T12:19:03;2.30;;;2.00;;
48002;SDS011;33768;48.578;11.574;2022-09-29T12:22:00;3.10;;;2.23;;
48002;SDS011;33768;48.578;11.574;2022-09-29T12:25:09;4.20;;;2.03;;
48002;SDS011;33768;48.578;11.574;2022-09-29T12:28:19;3.90;;;2.13;;
48002;SDS011;33768;48.578;11.574;2022-09-29T12:31:27;3.03;;;2.60;;
48002;SDS011;33768;48.578;11.574;2022-09-29T12:41:24;4.57;;;2.30;;
48002;SDS011;33768;48.578;11.574;2022-09-29T12:44:34;4.60;;;2.43;;
48002;SDS011;33768;48.578;11.574;2022-09-29T12:47:46;2.73;;;1.97;;
48002;SDS011;33768;48.578;11.574;2022-09-29T12:51:08;5.10;;;2.10;;
48002;SDS011;33768;48.578;11.574;2022-09-29T12:54:33;2.30;;;2.00;;
48002;SDS011;33768;48.578;11.574;2022-09-29T12:57:42;2.70;;;1.70;;
48002;SDS011;33768;48.578;11.574;2022-09-29T13:00:53;3.10;;;1.87;;
48002;SDS011;33768;48.578;11.574;2022-09-29T13:18:47;3.23;;;2.10;;
48002;SDS011;33768;48.578;11.574;2022-09-29T13:28:47;6.20;;;3.17;;
48002;SDS011;33768;48.578;11.574;2022-09-29T13:31:55;2.10;;;1.50;;
48002;SDS011;33768;48.578;11.574;2022-09-29T13:35:00;2.50;;;2.10;;
48002;SDS011;33768;48.578;11.574;2022-09-29T13:38:06;2.73;;;1.87;;
48002;SDS011;33768;48.578;11.574;2022-09-29T13:44:25;2.30;;;1.50;;
48002;SDS011;33768;48.578;11.574;2022-09-29T13:47:32;2.87;;;1.90;;
48002;SDS011;33768;48.578;11.574;2022-09-29T13:50:41;2.27;;;1.50;;
48002;SDS011;33768;48.578;11.574;2022-09-29T13:57:26;3.47;;;2.13;;
48002;SDS011;33768;48.578;11.574;2022-09-29T14:00:30;3.03;;;2.13;;
48002;SDS011;33768;48.578;11.574;2022-09-29T14:03:36;3.17;;;2.37;;
48002;SDS011;33768;48.578;11.574;2022-09-29T14:06:45;5.13;;;2.57;;
48002;SDS011;33768;48.578;11.574;2022-09-29T14:09:50;4.83;;;3.00;;
48002;SDS011;33768;48.578;11.574;2022-09-29T14:25:47;1.90;;;1.80;;
48002;SDS011;33768;48.578;11.574;2022-09-29T14:28:56;5.70;;;2.20;;
48002;SDS011;33768;48.578;11.574;2022-09-29T14:32:02;1.83;;;1.70;;
48002;SDS011;33768;48.578;11.574;2022-09-29T14:35:14;3.60;;;1.77;;
48002;SDS011;33768;48.578;11.574;2022-09-29T14:41:38;3.17;;;2.13;;
48002;SDS011;33768;48.578;11.574;2022-09-29T14:44:44;2.73;;;2.27;;
48002;SDS011;33768;48.578;11.574;2022-09-29T14:48:09;3.83;;;2.20;;
48002;SDS011;33768;48.578;11.574;2022-09-29T14:51:49;5.97;;;2.07;;
48002;SDS011;33768;48.578;11.574;2022-09-29T14:59:01;2.07;;;1.80;;
48002;SDS011;33768;48.578;11.574;2022-09-29T15:02:17;3.00;;;1.80;;
48002;SDS011;33768;48.578;11.574;2022-09-29T15:05:28;2.50;;;1.70;;
48002;SDS011;33768;48.578;11.574;2022-09-29T15:08:34;2.53;;;1.80;;
48002;SDS011;33768;48.578;11.574;2022-09-29T15:12:01;3.77;;;1.60;;
48002;SDS011;33768;48.578;11.574;2022-09-29T15:15:26;6.63;;;1.80;;
48002;SDS011;33768;48.578;11.574;2022-09-29T15:22:31;2.03;;;1.80;;
48002;SDS011;33768;48.578;11.574;2022-09-29T15:25:42;2.13;;;1.70;;
48002;SDS011;33768;48.578;11.574;2022-09-29T15:28:47;3.40;;;1.83;;
48002;SDS011;33768;48.578;11.574;2022-09-29T15:31:51;3.23;;;2.27;;
48002;SDS011;33768;48.578;11.574;2022-09-29T15:35:00;3.17;;;2.03;;
48002;SDS011;33768;48.578;11.574;2022-09-29T15:38:25;4.40;;;2.60;;
48002;SDS011;33768;48.578;11.574;2022-09-29T15:41:35;4.07;;;2.70;;
48002;SDS011;33768;48.578;11.574;2022-09-29T15:44:39;3.53;;;2.60;;
48002;SDS011;33768;48.578;11.574;2022-09-29T15:47:57;7.70;;;4.10;;
48002;SDS011;33768;48.578;11.574;2022-09-29T15:51:15;5.67;;;3.53;;
48002;SDS011;33768;48.578;11.574;2022-09-29T15:54:21;3.70;;;3.10;;
48002;SDS011;33768;48.578;11.574;2022-09-29T16:00:46;2.87;;;1.83;;
48002;SDS011;33768;48.578;11.574;2022-09-29T16:03:52;3.77;;;2.30;;
48002;SDS011;33768;48.578;11.574;2022-09-29T16:07:00;3.13;;;2.20;;
48002;SDS011;33768;48.578;11.574;2022-09-29T16:10:06;3.30;;;2.17;;
48002;SDS011;33768;48.578;11.574;2022-09-29T16:13:18;3.47;;;2.20;;
48002;SDS011;33768;48.578;11.574;2022-09-29T16:16:26;4.33;;;1.70;;
48002;SDS011;33768;48.578;11.574;2022-09-29T16:19:32;4.13;;;1.90;;
48002;SDS011;33768;48.578;11.574;2022-09-29T16:22:38;2.20;;;1.90;;
48002;SDS011;33768;48.578;11.574;2022-09-29T16:25:42;3.97;;;2.40;;
48002;SDS011;33768;48.578;11.574;2022-09-29T16:38:45;3.87;;;3.27;;
48002;SDS011;33768;48.578;11.574;2022-09-29T16:41:51;3.97;;;3.00;;
48002;SDS011;33768;48.578;11.574;2022-09-29T16:44:57;6.10;;;3.20;;
48002;SDS011;33768;48.578;11.574;2022-09-29T16:48:01;3.47;;;3.03;;
48002;SDS011;33768;48.578;11.574;2022-09-29T16:51:08;4.77;;;3.63;;
48002;SDS011;33768;48.578;11.574;2022-09-29T16:54:22;5.10;;;4.17;;
48002;SDS011;33768;48.578;11.574;2022-09-29T16:57:31;5.40;;;4.43;;
48002;SDS011;33768;48.578;11.574;2022-09-29T17:00:37;5.00;;;4.20;;
48002;SDS011;33768;48.578;11.574;2022-09-29T17:03:42;4.43;;;4.03;;
48002;SDS011;33768;48.578;11.574;2022-09-29T17:06:46;4.00;;;3.60;;
48002;SDS011;33768;48.578;11.574;2022-09-29T17:09:52;7.13;;;3.97;;
48002;SDS011;33768;48.578;11.574;2022-09-29T17:12:58;6.53;;;3.20;;
48002;SDS011;33768;48.578;11.574;2022-09-29T17:16:03;4.33;;;3.50;;
48002;SDS011;33768;48.578;11.574;2022-09-29T17:19:10;4.77;;;3.27;;
48002;SDS011;33768;48.578;11.574;2022-09-29T17:22:25;4.97;;;3.67;;
48002;SDS011;33768;48.578;11.574;2022-09-29T17:25:31;6.97;;;3.10;;
48002;SDS011;33768;48.578;11.574;2022-09-29T17:28:36;4.50;;;3.57;;
48002;SDS011;33768;48.578;11.574;2022-09-29T17:31:40;3.83;;;3.13;;
48002;SDS011;33768;48.578;11.574;2022-09-29T17:34:45;3.83;;;3.27;;
48002;SDS011;33768;48.578;11.574;2022-09-29T17:37:49;4.23;;;3.40;;
48002;SDS011;33768;48.578;11.574;2022-09-29T17:40:58;5.50;;;3.53;;
48002;SDS011;33768;48.578;11.574;2022-09-29T17:44:07;4.23;;;3.67;;
48002;SDS011;33768;48.578;11.574;2022-09-29T17:47:13;6.37;;;3.77;;
48002;SDS011;33768;48.578;11.574;2022-09-29T17:53:43;6.00;;;3.20;;
48002;SDS011;33768;48.578;11.574;2022-09-29T17:56:48;4.80;;;2.83;;
48002;SDS011;33768;48.578;11.574;2022-09-29T17:59:52;4.77;;;3.03;;
48002;SDS011;33768;48.578;11.574;2022-09-29T18:02:57;3.60;;;2.67;;
48002;SDS011;33768;48.578;11.574;2022-09-29T18:06:01;5.10;;;3.90;;
48002;SDS011;33768;48.578;11.574;2022-09-29T18:09:15;6.00;;;3.80;;
48002;SDS011;33768;48.578;11.574;2022-09-29T18:12:21;4.37;;;3.20;;
48002;SDS011;33768;48.578;11.574;2022-09-29T18:15:25;5.10;;;3.27;;
48002;SDS011;33768;48.578;11.574;2022-09-29T18:18:30;3.13;;;2.83;;
48002;SDS011;33768;48.578;11.574;2022-09-29T18:21:38;3.53;;;3.07;;
48002;SDS011;33768;48.578;11.574;2022-09-29T18:24:42;3.63;;;3.33;;
48002;SDS011;33768;48.578;11.574;2022-09-29T18:27:47;4.23;;;3.07;;
48002;SDS011;33768;48.578;11.574;2022-09-29T18:31:02;9.07;;;3.00;;
48002;SDS011;33768;48.578;11.574;2022-09-29T18:34:16;4.50;;;2.97;;
48002;SDS011;33768;48.578;11.574;2022-09-29T18:37:21;3.50;;;3.10;;
48002;SDS011;33768;48.578;11.574;2022-09-29T18:40:26;4.23;;;3.20;;
48002;SDS011;33768;48.578;11.574;2022-09-29T18:43:32;8.17;;;3.33;;
48002;SDS011;33768;48.578;11.574;2022-09-29T18:46:36;7.63;;;3.90;;
48002;SDS011;33768;48.578;11.574;2022-09-29T18:49:40;6.80;;;4.27;;
48002;SDS011;33768;48.578;11.574;2022-09-29T18:52:48;5.20;;;3.90;;
48002;SDS011;33768;48.578;11.574;2022-09-29T18:56:00;7.00;;;4.17;;
48002;SDS011;33768;48.578;11.574;2022-09-29T18:59:07;8.53;;;4.20;;
48002;SDS011;33768;48.578;11.574;2022-09-29T19:02:15;5.13;;;4.50;;
48002;SDS011;33768;48.578;11.574;2022-09-29T19:05:20;5.70;;;3.90;;
48002;SDS011;33768;48.578;11.574;2022-09-29T19:08:26;6.03;;;4.80;;
48002;SDS011;33768;48.578;11.574;2022-09-29T19:11:30;5.37;;;4.50;;
48002;SDS011;33768;48.578;11.574;2022-09-29T19:14:36;7.87;;;5.70;;
48002;SDS011;33768;48.578;11.574;2022-09-29T19:17:40;7.03;;;5.57;;
48002;SDS011;33768;48.578;11.574;2022-09-29T19:20:45;8.13;;;6.17;;
48002;SDS011;33768;48.578;11.574;2022-09-29T19:23:50;8.20;;;6.30;;
48002;SDS011;33768;48.578;11.574;2022-09-29T19:26:54;7.17;;;5.93;;
48002;SDS011;33768;48.578;11.574;2022-09-29T19:29:58;7.73;;;6.27;;
48002;SDS011;33768;48.578;11.574;2022-09-29T19:33:04;7.43;;;5.33;;
48002;SDS011;33768;48.578;11.574;2022-09-29T19:36:12;7.53;;;5.50;;
48002;SDS011;33768;48.578;11.574;2022-09-29T19:39:19;6.60;;;5.90;;
48002;SDS011;33768;48.578;11.574;2022-09-29T19:42:23;7.37;;;5.83;;
48002;SDS011;33768;48.578;11.574;2022-09-29T19:45:27;6.03;;;5.13;;
48002;SDS011;33768;48.578;11.574;2022-09-29T19:48:32;9.87;;;6.30;;
48002;SDS011;33768;48.578;11.574;2022-09-29T19:51:36;6.53;;;5.30;;
48002;SDS011;33768;48.578;11.574;2022-09-29T19:54:52;7.00;;;5.37;;
48002;SDS011;33768;48.578;11.574;2022-09-29T19:57:57;8.07;;;5.93;;
48002;SDS011;33768;48.578;11.574;2022-09-29T20:01:02;9.97;;;5.83;;
48002;SDS011;33768;48.578;11.574;2022-09-29T20:04:05;7.93;;;5.90;;
48002;SDS011;33768;48.578;11.574;2022-09-29T20:07:10;7.30;;;5.80;;
48002;SDS011;33768;48.578;11.574;2022-09-29T20:10:14;7.07;;;5.47;;
48002;SDS011;33768;48.578;11.574;2022-09-29T20:13:20;6.87;;;5.70;;
48002;SDS011;33768;48.578;11.574;2022-09-29T20:16:25;6.97;;;5.40;;
48002;SDS011;33768;48.578;11.574;2022-09-29T20:19:29;5.97;;;5.00;;
48002;SDS011;33768;48.578;11.574;2022-09-29T20:22:34;7.23;;;5.90;;
48002;SDS011;33768;48.578;11.574;2022-09-29T20:25:39;6.87;;;6.00;;
48002;SDS011;33768;48.578;11.574;2022-09-29T20:28:43;7.97;;;5.90;;
48002;SDS011;33768;48.578;11.574;2022-09-29T20:31:51;7.87;;;5.77;;
48002;SDS011;33768;48.578;11.574;2022-09-29T20:34:57;6.53;;;5.90;;
48002;SDS011;33768;48.578;11.574;2022-09-29T20:38:01;8.37;;;6.07;;
48002;SDS011;33768;48.578;11.574;2022-09-29T20:41:06;6.90;;;5.70;;
48002;SDS011;33768;48.578;11.574;2022-09-29T20:44:11;10.30;;;8.10;;
48002;SDS011;33768;48.578;11.574;2022-09-29T20:47:21;8.63;;;7.10;;
48002;SDS011;33768;48.578;11.574;2022-09-29T20:50:31;9.53;;;7.57;;
48002;SDS011;33768;48.578;11.574;2022-09-29T20:53:35;10.30;;;7.33;;
48002;SDS011;33768;48.578;11.574;2022-09-29T20:56:42;7.83;;;6.60;;
48002;SDS011;33768;48.578;11.574;2022-09-29T20:59:47;10.47;;;8.00;;
48002;SDS011;33768;48.578;11.574;2022-09-29T21:02:51;8.33;;;6.63;;
48002;SDS011;33768;48.578;11.574;2022-09-29T21:05:55;12.37;;;7.60;;
48002;SDS011;33768;48.578;11.574;2022-09-29T21:08:59;9.03;;;7.07;;
48002;SDS011;33768;48.578;11.574;2022-09-29T21:12:04;10.30;;;7.43;;
48002;SDS011;33768;48.578;11.574;2022-09-29T21:15:09;9.33;;;7.10;;
48002;SDS011;33768;48.578;11.574;2022-09-29T21:18:13;8.60;;;7.63;;
48002;SDS011;33768;48.578;11.574;2022-09-29T21:21:17;10.63;;;7.43;;
48002;SDS011;33768;48.578;11.574;2022-09-29T21:24:21;7.77;;;6.83;;
48002;SDS011;33768;48.578;11.574;2022-09-29T21:27:26;8.10;;;6.90;;
48002;SDS011;33768;48.578;11.574;2022-09-29T21:30:31;9.00;;;7.30;;
48002;SDS011;33768;48.578;11.574;2022-09-29T21:33:35;9.67;;;7.60;;
48002;SDS011;33768;48.578;11.574;2022-09-29T21:36:40;9.93;;;7.27;;